Time;durP1;ratioP1;P1;durP2;ratioP2;P2;SDS_P1;SDS_P2;PMS_P1;PMS_P2;Temp;Humidity;BMP_temperature;BMP_pressure;BME280_temperature;BME280_humidity;BME280_pressure;Samples;Min_cycle;Max_cycle;Signal;HPM_P1;HPM_P2
2021/04/13 00:00:35;;;;;;;4.35;3.15;;;19.80;42.30;;;;;;5129817;27;20088;-38
2021/04/13 00:03:08;;;;;;;4.30;3.70;;;19.80;42.30;;;;;;5129956;27;20555;-39
2021/04/13 00:05:46;;;;;;;4.20;3.22;;;19.90;42.40;;;;;;5133821;27;20039;-39
2021/04/13 00:08:21;;;;;;;4.32;3.28;;;19.80;42.30;;;;;;5132664;27;20043;-38
2021/04/13 00:11:00;;;;;;;5.55;3.42;;;19.80;42.30;;;;;;5133605;27;20047;-37
2021/04/13 00:13:28;;;;;;;3.92;3.03;;;19.80;42.30;;;;;;5131917;27;20094;-38
2021/04/13 00:16:05;;;;;;;3.90;2.90;;;19.80;42.30;;;;;;5130109;27;20047;-38
2021/04/13 00:18:34;;;;;;;4.03;3.25;;;19.80;42.30;;;;;;5133358;27;20051;-38
2021/04/13 00:21:18;;;;;;;3.88;3.10;;;19.80;42.20;;;;;;5127292;27;20126;-38
2021/04/13 00:23:45;;;;;;;4.25;3.35;;;19.80;42.30;;;;;;5114974;27;20104;-38
2021/04/13 00:26:24;;;;;;;4.78;3.30;;;19.80;42.20;;;;;;5114913;28;20170;-38
2021/04/13 00:28:54;;;;;;;3.95;2.80;;;19.80;42.30;;;;;;5120906;27;20096;-38
2021/04/13 00:31:42;;;;;;;4.13;2.92;;;19.80;42.30;;;;;;5129349;27;20066;-37
2021/04/13 00:34:20;;;;;;;3.85;2.97;;;19.80;42.30;;;;;;5132095;27;20043;-38
2021/04/13 00:36:48;;;;;;;3.45;2.97;;;19.80;42.30;;;;;;5132754;27;20047;-38
2021/04/13 00:39:28;;;;;;;4.22;3.50;;;19.80;42.30;;;;;;5124676;27;20036;-37
2021/04/13 00:42:11;;;;;;;4.30;3.17;;;19.80;42.30;;;;;;5124818;27;20043;-38
2021/04/13 00:44:46;;;;;;;3.60;2.88;;;19.80;42.20;;;;;;5130614;27;20051;-38
2021/04/13 00:47:34;;;;;;;3.78;3.13;;;19.80;42.30;;;;;;5130688;27;20101;-38
2021/04/13 00:50:08;;;;;;;3.58;3.05;;;19.80;42.30;;;;;;5120466;27;20047;-37
2021/04/13 00:52:45;;;;;;;4.10;3.10;;;19.80;42.30;;;;;;5125556;27;20437;-38
2021/04/13 00:55:13;;;;;;;5.50;2.83;;;19.80;42.30;;;;;;5130243;28;20162;-37
2021/04/13 00:57:47;;;;;;;3.50;2.88;;;19.80;42.30;;;;;;5128967;28;20104;-38
2021/04/13 01:00:36;;;;;;;3.45;2.70;;;19.80;42.30;;;;;;5130709;28;20051;-38
2021/04/13 01:03:05;;;;;;;3.97;2.80;;;19.80;42.30;;;;;;5130538;28;20054;-38
2021/04/13 01:05:41;;;;;;;3.63;2.90;;;19.80;42.30;;;;;;5131859;28;20460;-37
2021/04/13 01:08:35;;;;;;;3.78;3.08;;;19.80;42.30;;;;;;5132679;28;20124;-38
2021/04/13 01:11:18;;;;;;;3.23;2.70;;;19.80;42.30;;;;;;5108538;28;20043;-37
2021/04/13 01:13:52;;;;;;;4.45;2.90;;;19.80;42.20;;;;;;5131245;28;20190;-37
2021/04/13 01:16:24;;;;;;;4.07;3.05;;;19.80;42.30;;;;;;5132823;28;20050;-37
2021/04/13 01:18:55;;;;;;;3.90;3.10;;;19.80;42.30;;;;;;5131481;28;20447;-37
2021/04/13 01:21:42;;;;;;;4.07;2.95;;;19.80;42.20;;;;;;5132532;28;20092;-38
2021/04/13 01:24:24;;;;;;;3.83;3.17;;;19.80;42.30;;;;;;5113325;28;20503;-37
2021/04/13 01:26:54;;;;;;;4.25;2.78;;;19.80;42.30;;;;;;5114111;28;20055;-37
2021/04/13 01:29:26;;;;;;;3.90;2.97;;;19.80;42.30;;;;;;5130963;28;20047;-38
2021/04/13 01:31:57;;;;;;;3.53;2.95;;;19.80;42.30;;;;;;5131458;28;20547;-37
2021/04/13 01:34:34;;;;;;;3.95;3.13;;;19.80;42.30;;;;;;5115121;28;20040;-37
2021/04/13 01:42:39;;;;;;;3.47;2.85;;;19.80;42.20;;;;;;5029295;28;20046;-38
2021/04/13 01:45:12;;;;;;;3.55;2.78;;;19.80;42.30;;;;;;5029203;28;20045;-37
2021/04/13 01:47:41;;;;;;;3.13;2.83;;;19.80;42.30;;;;;;5012356;28;20057;-37
2021/04/13 01:50:13;;;;;;;3.95;2.92;;;19.80;42.30;;;;;;5029037;28;20049;-37
2021/04/13 01:52:43;;;;;;;4.05;3.03;;;19.80;42.30;;;;;;5010820;28;20073;-37
2021/04/13 01:55:15;;;;;;;3.47;2.70;;;19.80;42.30;;;;;;5011015;28;20050;-37
2021/04/13 01:58:05;;;;;;;3.42;2.47;;;19.80;42.30;;;;;;5011631;28;20077;-37
2021/04/13 02:00:43;;;;;;;2.92;2.38;;;19.80;42.20;;;;;;5013080;28;20072;-38
2021/04/13 02:03:29;;;;;;;3.28;2.63;;;19.80;42.20;;;;;;5015532;28;20555;-37
2021/04/13 02:06:04;;;;;;;2.97;2.65;;;19.80;42.20;;;;;;5031785;28;20418;-37
2021/04/13 02:08:38;;;;;;;3.38;2.78;;;19.80;42.30;;;;;;5032559;28;20045;-37
2021/04/13 02:11:10;;;;;;;3.60;2.80;;;19.80;42.20;;;;;;5032498;28;20177;-37
2021/04/13 02:14:02;;;;;;;3.30;2.88;;;19.80;42.30;;;;;;5031226;28;20062;-38
2021/04/13 02:16:46;;;;;;;3.35;2.80;;;19.80;42.30;;;;;;5062825;27;20498;-37
2021/04/13 02:19:14;;;;;;;3.38;2.38;;;19.80;42.30;;;;;;5119184;27;20067;-37
2021/04/13 02:21:46;;;;;;;3.10;2.45;;;19.80;42.30;;;;;;5117332;27;20055;-37
2021/04/13 02:24:16;;;;;;;2.83;2.25;;;19.80;42.30;;;;;;5123399;27;20498;-37
2021/04/13 02:26:46;;;;;;;3.08;2.63;;;19.80;42.30;;;;;;5130418;27;20044;-37
2021/04/13 02:29:15;;;;;;;2.75;2.28;;;19.80;42.20;;;;;;5121106;27;20043;-37
2021/04/13 02:31:48;;;;;;;3.15;2.50;;;19.80;42.20;;;;;;5131223;27;20043;-37
2021/04/13 02:34:34;;;;;;;3.10;2.60;;;19.80;42.20;;;;;;5118669;27;20116;-38
2021/04/13 02:37:23;;;;;;;4.00;2.83;;;19.80;42.20;;;;;;5122054;27;20039;-38
2021/04/13 02:39:50;;;;;;;3.17;2.53;;;19.80;42.20;;;;;;5133816;27;20051;-37
2021/04/13 02:42:18;;;;;;;4.07;2.78;;;19.80;42.20;;;;;;5133079;27;20168;-37
2021/04/13 02:45:03;;;;;;;2.90;2.33;;;19.80;42.20;;;;;;5134040;27;20099;-38
2021/04/13 02:47:31;;;;;;;3.35;2.60;;;19.80;42.20;;;;;;5131847;27;20050;-37
2021/04/13 02:50:06;;;;;;;3.58;2.58;;;19.80;42.20;;;;;;5135333;27;20039;-37
2021/04/13 02:52:39;;;;;;;2.83;2.47;;;19.80;42.30;;;;;;5135149;27;20043;-38
2021/04/13 02:55:08;;;;;;;3.03;2.38;;;19.80;42.20;;;;;;5135347;27;20035;-38
2021/04/13 02:57:47;;;;;;;3.53;2.58;;;19.80;42.20;;;;;;5133666;27;20483;-37
2021/04/13 03:00:35;;;;;;;3.20;2.40;;;19.80;42.30;;;;;;5133470;27;20035;-37
2021/04/13 03:03:14;;;;;;;3.08;2.60;;;19.80;42.20;;;;;;5135173;27;20047;-38
2021/04/13 03:05:41;;;;;;;3.78;2.45;;;19.80;42.20;;;;;;5131364;27;20114;-38
2021/04/13 03:08:14;;;;;;;4.30;2.70;;;19.80;42.20;;;;;;5132741;27;20051;-37
2021/04/13 03:10:47;;;;;;;2.97;2.50;;;19.80;42.20;;;;;;5127474;27;20444;-38
2021/04/13 03:13:19;;;;;;;3.65;2.78;;;19.80;42.20;;;;;;5119956;27;20086;-38
2021/04/13 03:15:58;;;;;;;3.08;2.50;;;19.80;42.20;;;;;;5128415;27;20070;-38
2021/04/13 03:18:34;;;;;;;3.45;2.55;;;19.80;42.20;;;;;;5117896;27;20082;-38
2021/04/13 03:21:09;;;;;;;3.10;2.50;;;19.80;42.20;;;;;;5121664;27;20047;-38
2021/04/13 03:23:37;;;;;;;2.58;2.35;;;19.80;42.20;;;;;;5127168;27;20444;-38
2021/04/13 03:26:13;;;;;;;2.80;2.22;;;19.80;42.20;;;;;;5117681;27;20097;-38
2021/04/13 03:28:46;;;;;;;2.75;2.00;;;19.80;42.20;;;;;;5123256;27;20076;-38
2021/04/13 03:31:15;;;;;;;2.97;2.40;;;19.80;42.20;;;;;;5130880;27;20043;-38
2021/04/13 03:33:42;;;;;;;3.45;2.55;;;19.80;42.20;;;;;;5133421;27;20422;-39
2021/04/13 03:36:18;;;;;;;3.47;2.50;;;19.80;42.20;;;;;;5125366;27;20079;-38
2021/04/13 03:38:55;;;;;;;3.03;2.30;;;19.80;42.20;;;;;;5130428;27;20043;-38
2021/04/13 03:41:23;;;;;;;3.65;2.60;;;19.80;42.20;;;;;;5131532;27;20043;-38
2021/04/13 03:43:57;;;;;;;3.00;2.42;;;19.80;42.20;;;;;;5130907;27;20128;-38
2021/04/13 03:46:26;;;;;;;2.50;2.22;;;19.80;42.20;;;;;;5127893;27;20043;-37
2021/04/13 03:48:53;;;;;;;3.58;2.45;;;19.80;42.20;;;;;;5119929;27;20051;-38
2021/04/13 03:51:28;;;;;;;2.60;2.08;;;19.80;42.20;;;;;;5132901;27;20096;-38
2021/04/13 03:53:55;;;;;;;3.03;2.22;;;19.80;42.20;;;;;;5133914;27;20560;-38
2021/04/13 03:56:25;;;;;;;2.70;2.28;;;19.80;42.20;;;;;;5133634;27;20074;-37
2021/04/13 03:58:58;;;;;;;2.88;2.33;;;19.80;42.20;;;;;;5130496;27;20035;-38
2021/04/13 04:01:30;;;;;;;2.45;2.13;;;19.80;42.20;;;;;;5116788;27;20104;-37
2021/04/13 04:03:59;;;;;;;3.00;2.40;;;19.80;42.20;;;;;;5115702;27;20047;-37
2021/04/13 04:07:04;;;;;;;2.95;2.47;;;19.80;42.20;;;;;;5115206;27;20047;-38
2021/04/13 04:09:31;;;;;;;2.75;2.35;;;19.80;42.20;;;;;;5032716;28;20176;-38
2021/04/13 04:12:16;;;;;;;3.17;2.40;;;19.80;42.20;;;;;;5032712;28;20046;-37
2021/04/13 04:15:05;;;;;;;2.25;1.95;;;19.80;42.20;;;;;;5030211;28;20132;-38
2021/04/13 04:17:35;;;;;;;2.90;2.10;;;19.80;42.20;;;;;;5030122;28;20387;-38
2021/04/13 04:20:08;;;;;;;2.50;2.10;;;19.80;42.20;;;;;;5030212;28;20037;-38
2021/04/13 04:22:45;;;;;;;2.60;2.20;;;19.80;42.20;;;;;;5030141;28;20049;-37
2021/04/13 04:25:20;;;;;;;2.95;2.20;;;19.80;42.20;;;;;;5029934;28;20052;-37
2021/04/13 04:27:52;;;;;;;4.03;2.60;;;19.80;42.20;;;;;;5030170;28;20067;-37
2021/04/13 04:30:31;;;;;;;3.20;2.28;;;19.80;42.20;;;;;;5029832;28;20095;-37
2021/04/13 04:33:01;;;;;;;3.00;2.15;;;19.80;42.80;;;;;;5029896;28;20050;-37
2021/04/13 04:35:34;;;;;;;2.17;1.75;;;19.80;42.20;;;;;;5029315;28;20464;-37
2021/04/13 04:38:29;;;;;;;2.75;2.38;;;19.80;42.80;;;;;;5029973;28;20091;-37
2021/04/13 04:41:00;;;;;;;2.83;2.40;;;19.80;42.20;;;;;;5028922;28;20136;-37
2021/04/13 04:43:52;;;;;;;3.20;2.55;;;19.80;42.20;;;;;;5029770;28;20103;-38
2021/04/13 04:46:34;;;;;;;2.75;2.08;;;19.80;42.20;;;;;;5088582;28;20126;-38
2021/04/13 04:49:07;;;;;;;2.63;2.20;;;19.80;42.20;;;;;;5110095;28;20047;-38
2021/04/13 04:51:34;;;;;;;2.72;2.13;;;19.80;42.20;;;;;;5112191;28;20487;-37
2021/04/13 04:54:02;;;;;;;2.33;2.13;;;19.80;42.20;;;;;;5109858;28;20040;-37
2021/04/13 04:56:29;;;;;;;2.53;2.00;;;19.80;42.20;;;;;;5109548;28;20044;-37
2021/04/13 04:58:55;;;;;;;2.63;2.17;;;19.80;42.20;;;;;;5112103;28;20075;-37
2021/04/13 05:01:22;;;;;;;2.80;2.10;;;19.80;42.20;;;;;;5112138;28;20040;-37
2021/04/13 05:03:49;;;;;;;2.38;2.00;;;19.80;42.20;;;;;;5110721;28;20544;-38
2021/04/13 05:06:16;;;;;;;2.75;2.10;;;19.80;42.20;;;;;;5112185;28;20051;-38
2021/04/13 05:08:42;;;;;;;2.88;2.20;;;19.80;42.20;;;;;;5109626;28;20051;-37
2021/04/13 05:11:11;;;;;;;2.75;1.92;;;19.80;42.20;;;;;;5109399;28;20047;-37
2021/04/13 05:13:38;;;;;;;2.55;1.90;;;19.80;42.20;;;;;;5117544;28;20460;-37
2021/04/13 05:16:05;;;;;;;3.22;2.50;;;19.80;42.20;;;;;;5132738;28;20055;-37
2021/04/13 05:18:32;;;;;;;2.22;1.92;;;19.80;42.20;;;;;;5131144;28;20502;-37
2021/04/13 05:20:58;;;;;;;2.45;1.90;;;19.80;42.20;;;;;;5132590;28;20162;-37
2021/04/13 05:23:25;;;;;;;2.70;2.13;;;19.80;42.20;;;;;;5129116;28;20047;-37
2021/04/13 05:25:52;;;;;;;2.70;2.13;;;19.80;42.20;;;;;;5131349;28;20074;-37
2021/04/13 05:28:20;;;;;;;2.15;1.95;;;19.80;42.20;;;;;;5113324;28;20391;-37
2021/04/13 05:30:49;;;;;;;2.20;1.88;;;19.80;42.20;;;;;;5112048;28;20043;-37
2021/04/13 05:33:18;;;;;;;2.22;2.00;;;19.80;42.20;;;;;;5130795;28;20088;-38
2021/04/13 05:35:44;;;;;;;2.13;1.80;;;19.80;42.20;;;;;;5125987;27;20043;-39
2021/04/13 05:38:16;;;;;;;2.38;2.03;;;19.80;42.20;;;;;;5118388;27;20044;-38
2021/04/13 05:40:42;;;;;;;2.17;1.80;;;19.80;42.20;;;;;;5134638;27;20093;-38
2021/04/13 05:43:11;;;;;;;2.22;2.00;;;19.80;42.20;;;;;;5119641;27;20124;-37
2021/04/13 05:45:41;;;;;;;2.58;1.83;;;19.80;42.20;;;;;;5133246;27;20058;-37
2021/04/13 05:48:10;;;;;;;3.13;2.15;;;19.80;42.20;;;;;;5133563;27;20522;-38
2021/04/13 05:50:39;;;;;;;2.45;1.90;;;19.80;42.20;;;;;;5134638;27;20076;-38
2021/04/13 05:53:08;;;;;;;2.60;2.10;;;19.80;42.20;;;;;;5133552;27;20075;-38
2021/04/13 05:55:37;;;;;;;2.10;1.90;;;19.80;42.20;;;;;;5133735;27;20039;-38
2021/04/13 05:58:41;;;;;;;2.53;2.05;;;19.80;42.20;;;;;;5125039;27;20052;-38
2021/04/13 06:01:09;;;;;;;3.17;2.28;;;19.80;42.20;;;;;;5033795;28;20138;-37
2021/04/13 06:03:36;;;;;;;2.40;1.60;;;19.80;42.20;;;;;;5034924;28;20045;-38
2021/04/13 06:06:04;;;;;;;2.47;2.08;;;19.80;42.20;;;;;;5032586;28;20049;-38
2021/04/13 06:08:30;;;;;;;2.30;1.75;;;19.80;42.20;;;;;;5032442;28;20107;-37
2021/04/13 06:10:57;;;;;;;2.58;2.13;;;19.80;42.20;;;;;;5032248;28;20057;-38
2021/04/13 06:13:25;;;;;;;2.90;2.10;;;19.80;42.20;;;;;;5032141;28;20049;-37
2021/04/13 06:15:54;;;;;;;2.33;1.75;;;19.80;42.20;;;;;;5032399;28;20099;-37
2021/04/13 06:18:22;;;;;;;2.15;1.95;;;19.80;42.20;;;;;;5033742;28;20042;-38
2021/04/13 06:20:49;;;;;;;2.65;1.90;;;19.80;42.20;;;;;;5032330;28;20046;-37
2021/04/13 06:23:16;;;;;;;2.40;1.90;;;19.80;42.20;;;;;;5016013;28;20095;-37
2021/04/13 06:25:43;;;;;;;2.25;2.00;;;19.80;42.20;;;;;;5034601;28;20454;-38
2021/04/13 06:28:10;;;;;;;2.10;1.77;;;19.80;42.20;;;;;;5033066;28;20124;-38
2021/04/13 06:30:40;;;;;;;2.17;1.80;;;19.80;42.20;;;;;;5034188;28;20056;-37
2021/04/13 06:33:08;;;;;;;2.67;1.73;;;19.80;42.20;;;;;;5032931;28;20140;-37
2021/04/13 06:35:35;;;;;;;2.78;1.90;;;19.80;42.20;;;;;;5042824;28;20045;-38
2021/04/13 06:38:07;;;;;;;1.85;1.70;;;19.80;42.20;;;;;;5118318;27;20039;-37
2021/04/13 06:40:58;;;;;;;2.42;1.95;;;19.80;42.10;;;;;;5132434;27;20092;-38
2021/04/13 06:43:50;;;;;;;2.28;1.70;;;19.80;42.20;;;;;;5132631;27;20095;-38
2021/04/13 06:46:39;;;;;;;1.85;1.58;;;19.80;42.20;;;;;;5132448;27;20039;-38
2021/04/13 06:49:12;;;;;;;2.55;1.80;;;19.80;42.10;;;;;;5132678;27;20104;-38
2021/04/13 06:52:08;;;;;;;2.05;1.60;;;19.80;42.10;;;;;;5132137;27;20125;-38
2021/04/13 06:54:42;;;;;;;1.80;1.60;;;19.80;42.10;;;;;;5132932;27;20483;-39
2021/04/13 06:57:18;;;;;;;2.53;1.88;;;19.80;42.20;;;;;;5132753;27;20122;-38
2021/04/13 07:00:26;;;;;;;2.40;1.60;;;19.80;42.20;;;;;;5133537;27;20552;-38
2021/04/13 07:03:08;;;;;;;2.00;1.48;;;19.80;42.20;;;;;;5052871;28;20524;-38
2021/04/13 07:05:47;;;;;;;2.78;1.88;;;19.80;42.70;;;;;;5052821;28;20362;-39
2021/04/13 07:08:39;;;;;;;2.03;1.70;;;19.80;42.20;;;;;;5051125;28;20048;-38
2021/04/13 07:11:22;;;;;;;2.13;1.58;;;19.80;42.20;;;;;;5034701;28;20455;-38
2021/04/13 07:14:12;;;;;;;2.33;1.70;;;19.80;42.20;;;;;;5053220;28;20492;-38
2021/04/13 07:16:45;;;;;;;1.98;1.73;;;19.80;42.20;;;;;;5059299;28;20041;-38
2021/04/13 07:19:17;;;;;;;1.90;1.70;;;19.80;42.20;;;;;;5055324;28;20036;-38
2021/04/13 07:22:16;;;;;;;2.00;1.77;;;19.80;42.10;;;;;;5065805;28;20094;-38
2021/04/13 07:24:54;;;;;;;2.13;1.67;;;19.80;42.10;;;;;;5050920;28;20053;-37
2021/04/13 07:27:48;;;;;;;2.15;1.65;;;19.80;42.10;;;;;;5056604;28;20049;-38
2021/04/13 07:30:26;;;;;;;2.22;1.75;;;19.80;42.20;;;;;;5066694;28;20048;-38
2021/04/13 07:32:58;;;;;;;2.00;1.65;;;19.80;42.10;;;;;;5057277;28;20124;-38
2021/04/13 07:35:30;;;;;;;2.70;1.70;;;19.80;42.20;;;;;;5051157;28;20049;-39
2021/04/13 07:38:02;;;;;;;2.70;1.75;;;19.80;42.10;;;;;;5069178;28;20121;-38
2021/04/13 07:40:36;;;;;;;1.67;1.38;;;19.80;42.10;;;;;;5126605;27;20402;-38
2021/04/13 07:43:24;;;;;;;1.67;1.58;;;19.80;42.10;;;;;;5131875;27;20087;-37
2021/04/13 07:46:15;;;;;;;2.50;1.60;;;19.80;42.10;;;;;;5131744;27;20186;-37
2021/04/13 07:49:27;;;;;;;1.95;1.75;;;19.80;42.10;;;;;;5132941;27;20055;-38
2021/04/13 07:52:06;;;;;;;2.20;1.60;;;19.80;42.10;;;;;;5030635;28;20080;-37
2021/04/13 07:54:46;;;;;;;1.95;1.50;;;19.80;42.10;;;;;;5029943;28;20053;-37
2021/04/13 07:57:40;;;;;;;2.60;1.92;;;19.80;42.10;;;;;;5030627;28;20567;-37
2021/04/13 08:00:09;;;;;;;2.25;1.90;;;19.80;42.10;;;;;;5016468;28;20532;-38
2021/04/13 08:02:36;;;;;;;2.33;1.60;;;19.80;42.10;;;;;;5031282;28;20041;-38
2021/04/13 08:05:05;;;;;;;2.10;1.70;;;19.80;42.10;;;;;;5031460;28;20046;-38
2021/04/13 08:07:36;;;;;;;2.20;1.77;;;19.80;42.10;;;;;;5029918;28;20099;-38
2021/04/13 08:10:12;;;;;;;2.15;1.50;;;19.80;42.10;;;;;;5030210;28;20501;-38
2021/04/13 08:12:58;;;;;;;2.25;1.80;;;19.80;42.10;;;;;;5014137;28;20091;-37
2021/04/13 08:15:42;;;;;;;2.13;1.75;;;19.80;42.10;;;;;;5014664;28;20091;-37
2021/04/13 08:18:18;;;;;;;2.05;1.60;;;19.80;42.10;;;;;;5032445;28;20183;-38
2021/04/13 08:20:49;;;;;;;2.15;1.67;;;19.80;42.10;;;;;;5044613;28;20049;-38
2021/04/13 08:23:25;;;;;;;1.67;1.55;;;19.80;42.10;;;;;;5031095;28;20045;-38
2021/04/13 08:25:56;;;;;;;1.85;1.65;;;19.80;42.10;;;;;;5031862;28;20622;-38
2021/04/13 08:28:40;;;;;;;2.35;1.83;;;19.80;42.10;;;;;;5069007;28;20453;-38
2021/04/13 08:34:18;;;;;;;2.60;1.95;;;19.80;42.10;;;;;;5110145;28;20815;-38
2021/04/13 08:37:04;;;;;;;2.28;1.70;;;19.80;42.10;;;;;;5103409;28;20047;-38
2021/04/13 08:39:43;;;;;;;1.85;1.50;;;19.80;42.10;;;;;;5111166;28;20047;-38
2021/04/13 08:42:35;;;;;;;2.13;1.50;;;19.80;42.10;;;;;;5111301;28;20540;-38
2021/04/13 08:45:15;;;;;;;1.77;1.50;;;19.80;42.10;;;;;;5109017;28;20104;-37
2021/04/13 08:47:58;;;;;;;2.10;1.58;;;19.80;42.00;;;;;;5112647;28;20051;-37
2021/04/13 08:51:06;;;;;;;1.83;1.50;;;19.80;42.00;;;;;;5112572;28;20074;-38
2021/04/13 08:53:37;;;;;;;1.85;1.45;;;19.80;42.00;;;;;;5029622;28;20053;-38
2021/04/13 08:56:11;;;;;;;1.70;1.40;;;19.80;42.00;;;;;;5030794;28;20053;-38
2021/04/13 08:58:40;;;;;;;;;;;19.80;42.00;;;;;;5031827;28;20451;-37
2021/04/13 09:01:26;;;;;;;2.25;1.70;;;19.80;42.00;;;;;;5029770;28;19999;-38
2021/04/13 09:03:53;;;;;;;1.83;1.65;;;19.80;42.00;;;;;;5030117;28;20045;-37
2021/04/13 09:06:25;;;;;;;1.75;1.40;;;19.80;42.10;;;;;;5029910;28;20061;-37
2021/04/13 09:09:00;;;;;;;2.33;1.70;;;19.80;42.10;;;;;;5028897;28;20050;-38
2021/04/13 09:11:36;;;;;;;1.52;1.40;;;19.80;42.10;;;;;;5032299;28;20049;-42
2021/04/13 09:14:28;;;;;;;2.30;1.55;;;19.80;42.10;;;;;;5050636;28;20053;-38
2021/04/13 09:17:19;;;;;;;1.95;1.40;;;19.80;42.10;;;;;;5021165;28;20046;-39
2021/04/13 09:20:17;;;;;;;2.03;1.55;;;19.80;42.10;;;;;;5033575;28;20045;-38
2021/04/13 09:22:50;;;;;;;2.80;1.83;;;19.80;42.10;;;;;;5033717;28;20055;-37
2021/04/13 09:25:31;;;;;;;1.52;1.30;;;19.80;42.10;;;;;;5034742;28;20145;-38
2021/04/13 09:28:19;;;;;;;1.95;1.58;;;19.80;42.00;;;;;;5039103;28;20099;-38
2021/04/13 09:30:59;;;;;;;2.03;1.50;;;19.80;42.10;;;;;;5107515;28;20055;-37
2021/04/13 09:33:44;;;;;;;1.77;1.40;;;19.80;42.10;;;;;;5112573;28;20461;-38
2021/04/13 09:36:41;;;;;;;2.03;1.60;;;19.80;42.10;;;;;;5115303;28;20437;-37
2021/04/13 09:39:12;;;;;;;1.95;1.40;;;19.80;42.10;;;;;;5096817;28;20039;-37
2021/04/13 09:42:16;;;;;;;3.47;1.20;;;19.80;42.10;;;;;;5115668;28;20127;-37
2021/04/13 09:44:52;;;;;;;1.55;1.40;;;19.80;42.00;;;;;;5114810;28;20048;-38
2021/04/13 09:47:39;;;;;;;2.88;1.50;;;19.80;42.10;;;;;;5113485;28;20155;-37
2021/04/13 09:50:19;;;;;;;1.67;1.45;;;19.80;42.00;;;;;;5114937;28;20101;-37
2021/04/13 09:53:04;;;;;;;1.65;1.35;;;19.80;42.00;;;;;;5097196;28;20048;-37
2021/04/13 09:55:50;;;;;;;2.10;1.38;;;19.80;42.00;;;;;;5098505;28;20099;-38
2021/04/13 09:58:46;;;;;;;1.45;1.35;;;19.80;42.00;;;;;;5098599;28;20043;-37
2021/04/13 10:01:44;;;;;;;1.67;1.40;;;19.80;42.00;;;;;;5102200;28;20453;-38
2021/04/13 10:04:41;;;;;;;1.80;1.45;;;19.80;42.00;;;;;;5113673;28;20048;-37
2021/04/13 10:07:25;;;;;;;1.83;1.50;;;19.80;42.00;;;;;;5031508;28;20128;-37
2021/04/13 10:09:52;;;;;;;;;;;19.80;42.00;;;;;;5031612;28;20050;-38
2021/04/13 10:12:43;;;;;;;2.10;1.55;;;19.80;42.00;;;;;;5029919;28;20347;-37
2021/04/13 10:15:40;;;;;;;1.90;1.40;;;19.80;42.00;;;;;;5029949;28;20124;-37
2021/04/13 10:18:44;;;;;;;2.33;1.45;;;19.80;42.00;;;;;;5031104;28;20413;-38
2021/04/13 10:21:19;;;;;;;1.63;1.45;;;19.80;42.10;;;;;;5015703;28;20041;-38
2021/04/13 10:24:22;;;;;;;1.92;1.30;;;19.80;42.10;;;;;;5014642;28;20442;-38
2021/04/13 10:27:17;;;;;;;1.80;1.50;;;19.80;42.10;;;;;;5029696;28;20049;-38
2021/04/13 10:29:43;;;;;;;;;;;19.80;42.10;;;;;;5032409;28;20612;-38
2021/04/13 10:32:34;;;;;;;1.80;1.27;;;19.80;42.10;;;;;;5029422;28;19921;-38
2021/04/13 10:35:32;;;;;;;1.30;1.20;;;19.80;42.20;;;;;;5035510;28;20049;-38
2021/04/13 10:38:40;;;;;;;1.77;1.48;;;19.80;42.10;;;;;;5032607;28;20081;-38
2021/04/13 10:41:18;;;;;;;1.60;1.23;;;19.80;42.20;;;;;;5029772;28;20217;-39
2021/04/13 10:44:18;;;;;;;1.88;1.35;;;19.80;42.20;;;;;;5057411;28;20104;-38
2021/04/13 10:46:58;;;;;;;3.85;1.38;;;19.80;42.20;;;;;;5094148;28;20044;-38
2021/04/13 10:49:59;;;;;;;2.63;1.50;;;19.80;42.20;;;;;;5114365;28;20047;-38
2021/04/13 10:53:02;;;;;;;1.83;1.30;;;19.80;42.20;;;;;;5109509;28;20066;-39
2021/04/13 10:55:46;;;;;;;1.80;1.40;;;19.90;42.30;;;;;;5096178;28;20039;-38
2021/04/13 10:58:41;;;;;;;3.17;1.60;;;19.80;42.30;;;;;;5104569;28;20132;-38
2021/04/13 11:01:10;;;;;;;2.45;1.40;;;19.80;42.30;;;;;;5099871;27;20511;-38
2021/04/13 11:04:25;;;;;;;3.72;1.30;;;19.90;42.40;;;;;;5097403;28;20136;-38
2021/04/13 11:07:19;;;;;;;2.45;1.15;;;19.90;42.50;;;;;;5096312;28;20102;-38
2021/04/13 11:10:13;;;;;;;4.95;1.35;;;19.80;42.50;;;;;;5096237;28;20077;-39
2021/04/13 11:13:03;;;;;;;;;;;19.90;42.60;;;;;;5097244;28;20039;-38
2021/04/13 11:16:07;;;;;;;2.90;1.70;;;19.80;42.60;;;;;;5112887;28;19947;-37
2021/04/13 11:18:40;;;;;;;2.90;1.70;;;19.80;42.60;;;;;;5112854;28;20043;-39
2021/04/13 11:21:11;;;;;;;2.65;1.48;;;19.80;42.60;;;;;;5112747;28;20043;-37
2021/04/13 11:24:16;;;;;;;5.50;1.30;;;19.80;42.60;;;;;;5112495;28;20047;-38
2021/04/13 11:27:20;;;;;;;6.00;1.50;;;19.80;42.60;;;;;;5111304;28;20043;-38
2021/04/13 11:30:22;;;;;;;7.72;1.70;;;19.80;42.70;;;;;;5111986;28;20043;-37
2021/04/13 11:33:10;;;;;;;6.03;1.45;;;19.80;42.60;;;;;;5093127;28;20083;-38
2021/04/13 11:35:40;;;;;;;3.20;1.38;;;19.80;42.70;;;;;;5101272;28;20071;-36
2021/04/13 11:38:25;;;;;;;4.97;1.73;;;19.80;42.70;;;;;;5113820;27;20040;-38
2021/04/13 11:41:19;;;;;;;11.45;1.52;;;19.80;42.80;;;;;;5113866;28;20093;-37
2021/04/13 11:44:00;;;;;;;9.82;1.90;;;19.90;43.30;;;;;;5112310;28;20094;-38
2021/04/13 11:46:50;;;;;;;8.60;1.92;;;19.80;43.20;;;;;;5107831;28;20048;-38
2021/04/13 11:49:37;;;;;;;7.88;1.92;;;19.90;43.40;;;;;;5103839;28;20464;-38
2021/04/13 11:52:29;;;;;;;9.23;1.70;;;19.90;43.30;;;;;;5111706;28;20044;-38
2021/04/13 11:54:56;;;;;;;11.43;1.70;;;19.90;43.20;;;;;;5113587;28;20074;-38
2021/04/13 11:57:26;;;;;;;6.60;1.80;;;19.90;43.10;;;;;;5111164;28;20453;-38
2021/04/13 12:00:11;;;;;;;12.80;1.98;;;19.90;43.00;;;;;;5110691;28;20040;-38
2021/04/13 12:02:44;;;;;;;10.30;1.70;;;19.90;43.00;;;;;;5111928;28;20095;-38
2021/04/13 12:05:32;;;;;;;15.48;1.73;;;19.90;43.00;;;;;;5111734;28;20043;-38
2021/04/13 12:08:00;;;;;;;12.45;1.98;;;19.90;43.00;;;;;;5112193;28;20054;-38
2021/04/13 12:10:30;;;;;;;8.38;1.48;;;19.90;43.00;;;;;;5111986;28;20059;-38
2021/04/13 12:13:10;;;;;;;10.13;1.88;;;19.90;43.00;;;;;;5113949;27;20050;-38
2021/04/13 12:15:36;;;;;;;13.55;1.60;;;19.90;43.00;;;;;;5132087;27;20057;-37
2021/04/13 12:18:38;;;;;;;11.93;1.67;;;19.90;43.00;;;;;;5131017;27;20099;-37
2021/04/13 12:21:26;;;;;;;9.80;1.63;;;19.90;43.00;;;;;;5133482;27;20039;-37
2021/04/13 12:23:59;;;;;;;12.05;1.58;;;19.80;43.50;;;;;;5114020;27;20048;-38
2021/04/13 12:26:40;;;;;;;8.80;2.40;;;19.80;42.90;;;;;;5132023;27;20047;-39
2021/04/13 12:29:33;;;;;;;10.23;2.13;;;19.80;42.90;;;;;;5132344;27;20174;-39
2021/04/13 12:32:12;;;;;;;17.77;2.00;;;19.80;42.90;;;;;;5116628;27;20039;-38
2021/04/13 12:35:00;;;;;;;22.45;2.60;;;19.90;43.00;;;;;;5131288;27;20126;-38
2021/04/13 12:37:38;;;;;;;8.02;2.10;;;19.80;42.90;;;;;;5131899;27;20124;-38
2021/04/13 12:40:28;;;;;;;7.22;1.83;;;19.90;43.00;;;;;;5127496;27;20039;-38
2021/04/13 12:43:11;;;;;;;9.18;1.90;;;19.80;42.90;;;;;;5113649;27;20043;-37
2021/04/13 12:45:44;;;;;;;10.85;2.00;;;19.80;42.90;;;;;;5132753;27;20120;-37
2021/04/13 12:48:13;;;;;;;11.02;1.85;;;19.90;42.90;;;;;;5126409;27;20097;-37
2021/04/13 12:50:43;;;;;;;17.30;2.25;;;19.80;42.90;;;;;;5115865;27;20058;-38
2021/04/13 12:53:23;;;;;;;5.65;1.75;;;19.80;42.90;;;;;;5119323;27;20455;-37
2021/04/13 12:56:07;;;;;;;8.32;2.00;;;19.90;43.00;;;;;;5113588;27;20043;-37
2021/04/13 12:58:38;;;;;;;10.75;1.90;;;19.90;42.90;;;;;;5130532;27;20050;-37
2021/04/13 13:01:06;;;;;;;11.07;1.38;;;19.80;42.80;;;;;;5132682;27;20054;-37
2021/04/13 13:03:39;;;;;;;7.70;2.10;;;19.90;42.90;;;;;;5132442;27;20096;-37
2021/04/13 13:06:35;;;;;;;9.98;1.52;;;19.90;43.00;;;;;;5130283;28;20156;-37
2021/04/13 13:09:05;;;;;;;9.00;1.80;;;19.90;42.90;;;;;;5027197;28;20497;-37
2021/04/13 13:11:32;;;;;;;12.75;1.85;;;19.80;42.80;;;;;;5013183;28;20041;-38
2021/04/13 13:14:07;;;;;;;8.30;1.70;;;19.80;42.80;;;;;;5028048;28;20065;-37
2021/04/13 13:16:43;;;;;;;9.93;1.70;;;19.90;42.90;;;;;;5028065;28;20045;-37
2021/04/13 13:19:28;;;;;;;13.40;1.85;;;19.90;42.90;;;;;;5028062;28;20048;-38
2021/04/13 13:21:59;;;;;;;6.15;1.63;;;19.80;42.80;;;;;;5013151;28;20453;-39
2021/04/13 13:24:32;;;;;;;9.73;1.80;;;19.80;42.80;;;;;;5027146;28;20038;-37
2021/04/13 13:27:32;;;;;;;9.30;1.63;;;19.80;42.80;;;;;;5028461;28;20080;-38
2021/04/13 13:30:08;;;;;;;7.53;1.45;;;19.80;42.80;;;;;;5028050;28;20060;-38
2021/04/13 13:32:36;;;;;;;8.00;1.60;;;19.80;42.80;;;;;;5016248;28;20453;-38
2021/04/13 13:35:09;;;;;;;6.72;1.50;;;19.80;42.80;;;;;;5029647;28;20049;-38
2021/04/13 13:37:42;;;;;;;8.95;1.83;;;19.80;42.80;;;;;;5020694;28;20133;-37
2021/04/13 13:40:17;;;;;;;6.50;2.00;;;19.80;42.80;;;;;;5024607;28;20129;-38
2021/04/13 13:42:45;;;;;;;8.05;1.92;;;19.80;42.80;;;;;;5027710;28;20057;-38
2021/04/13 13:45:50;;;;;;;8.52;2.00;;;19.80;42.80;;;;;;5072931;28;20135;-37
2021/04/13 13:48:27;;;;;;;7.55;1.80;;;19.80;42.80;;;;;;5129133;28;20082;-38
2021/04/13 13:51:26;;;;;;;9.85;2.00;;;19.80;42.80;;;;;;5132136;28;20043;-38
2021/04/13 13:54:10;;;;;;;4.35;1.60;;;19.80;42.80;;;;;;5130212;28;20053;-38